Time;durP1;ratioP1;P1;durP2;ratioP2;P2;SDS_P1;SDS_P2;PMS_P1;PMS_P2;Temp;Humidity;BMP_temperature;BMP_pressure;BME280_temperature;BME280_humidity;BME280_pressure;Samples;Min_cycle;Max_cycle;Signal;HPM_P1;HPM_P2
2022/05/13 00:01:56;;;;;;;;;;;22.90;55.30;;;;;;5035057;28;19920;-69
2022/05/13 00:04:21;;;;;;;;;;;22.90;55.20;;;;;;5035027;28;19913;-70
2022/05/13 00:06:47;;;;;;;;;;;22.80;55.80;;;;;;5034977;28;19909;-69
2022/05/13 00:09:13;;;;;;;;;;;22.80;55.20;;;;;;5034489;28;19909;-71
2022/05/13 00:11:39;;;;;;;;;;;22.80;55.20;;;;;;5034962;28;19916;-71
2022/05/13 00:14:05;;;;;;;;;;;22.80;55.10;;;;;;5034941;28;19955;-70
2022/05/13 00:16:34;;;;;;;;;;;22.80;55.10;;;;;;5035215;28;19909;-71
2022/05/13 00:19:00;;;;;;;;;;;22.80;55.20;;;;;;5034375;28;19917;-69
2022/05/13 00:21:26;;;;;;;;;;;22.80;55.20;;;;;;5034809;28;19916;-72
2022/05/13 00:23:51;;;;;;;;;;;22.80;55.20;;;;;;5034788;28;20438;-71
2022/05/13 00:26:17;;;;;;;;;;;22.90;55.20;;;;;;5034702;28;20369;-73
2022/05/13 00:28:42;;;;;;;;;;;22.80;55.10;;;;;;5034044;28;19925;-72
2022/05/13 00:31:08;;;;;;;;;;;22.90;55.30;;;;;;5034591;28;19916;-72
2022/05/13 00:33:33;;;;;;;;;;;22.80;55.20;;;;;;5034642;28;19913;-70
2022/05/13 00:35:59;;;;;;;;;;;22.80;55.30;;;;;;5034416;28;20377;-73
2022/05/13 00:38:25;;;;;;;;;;;22.80;55.40;;;;;;5034184;28;19918;-73
2022/05/13 00:40:51;;;;;;;;;;;22.80;55.60;;;;;;5034227;28;19977;-73
2022/05/13 00:43:37;;;;;;;;;;;22.80;55.40;;;;;;5035944;28;19913;-73
2022/05/13 00:46:03;;;;;;;;;;;22.80;55.40;;;;;;5033605;28;19973;-73
2022/05/13 00:48:28;;;;;;;;;;;22.80;55.60;;;;;;5033752;28;20318;-74
2022/05/13 00:50:54;;;;;;;;;;;22.80;55.60;;;;;;5034141;28;20002;-73
2022/05/13 00:53:20;;;;;;;;;;;22.80;55.60;;;;;;5034239;28;19909;-73
2022/05/13 00:55:46;;;;;;;;;;;22.80;56.10;;;;;;5034064;28;19909;-70
2022/05/13 00:58:13;;;;;;;;;;;22.80;55.80;;;;;;5034038;28;19917;-74
2022/05/13 01:00:38;;;;;;;;;;;22.80;55.90;;;;;;5033711;28;19927;-71
2022/05/13 01:03:05;;;;;;;;;;;22.80;55.90;;;;;;5033998;28;19909;-74
2022/05/13 01:05:30;;;;;;;;;;;22.80;55.80;;;;;;5033940;28;20354;-72
2022/05/13 01:07:56;;;;;;;;;;;22.80;55.90;;;;;;5033873;28;19920;-73
2022/05/13 01:10:23;;;;;;;;;;;22.80;55.90;;;;;;5033462;28;19917;-72
2022/05/13 01:12:50;;;;;;;;;;;22.80;55.70;;;;;;5033862;28;19909;-73
2022/05/13 01:15:27;;;;;;;;;;;22.80;55.60;;;;;;5033792;28;19909;-73
2022/05/13 01:18:05;;;;;;;;;;;22.80;55.60;;;;;;5033598;28;19916;-73
2022/05/13 01:20:36;;;;;;;;;;;22.80;55.60;;;;;;5033084;28;19920;-72
2022/05/13 01:23:06;;;;;;;;;;;22.80;55.60;;;;;;5033631;28;19909;-72
2022/05/13 01:25:33;;;;;;;;;;;22.80;55.50;;;;;;5033652;28;19979;-72
2022/05/13 01:28:11;;;;;;;;;;;22.80;55.60;;;;;;5033280;28;19917;-72
2022/05/13 01:30:38;;;;;;;;;;;22.80;55.60;;;;;;5033148;28;19999;-71
2022/05/13 01:33:04;;;;;;;;;;;22.80;55.60;;;;;;5033374;28;19956;-72
2022/05/13 01:35:29;;;;;;;;;;;22.80;55.60;;;;;;5033407;28;19917;-72
2022/05/13 01:37:56;;;;;;;;;;;22.80;55.80;;;;;;5033365;28;19909;-72
2022/05/13 01:40:21;;;;;;;;;;;22.80;55.70;;;;;;5032778;28;19921;-72
2022/05/13 01:42:46;;;;;;;;;;;22.80;55.80;;;;;;5033268;28;19909;-72
2022/05/13 01:45:12;;;;;;;;;;;22.70;55.70;;;;;;5033287;28;20281;-73
2022/05/13 01:47:38;;;;;;;;;;;22.80;55.70;;;;;;5033123;28;19913;-72
2022/05/13 01:50:05;;;;;;;;;;;22.80;55.80;;;;;;5032729;28;20007;-72
2022/05/13 01:52:30;;;;;;;;;;;22.80;55.80;;;;;;5033069;28;20350;-74
2022/05/13 01:54:56;;;;;;;;;;;22.70;55.80;;;;;;5033064;28;19956;-75
2022/05/13 01:57:21;;;;;;;;;;;22.80;56.10;;;;;;5032978;28;19916;-73
2022/05/13 01:59:46;;;;;;;;;;;22.80;56.30;;;;;;5032339;28;19913;-74
2022/05/13 02:02:12;;;;;;;;;;;22.70;56.20;;;;;;5033062;28;20381;-73
2022/05/13 02:04:37;;;;;;;;;;;22.70;56.30;;;;;;5032835;28;19909;-74
2022/05/13 02:07:04;;;;;;;;;;;22.70;56.20;;;;;;5032974;28;19936;-73
2022/05/13 02:09:29;;;;;;;;;;;22.70;56.10;;;;;;5032466;28;19916;-74
2022/05/13 02:11:54;;;;;;;;;;;22.70;56.10;;;;;;5032902;28;19909;-75
2022/05/13 02:14:20;;;;;;;;;;;22.70;56.00;;;;;;5032784;28;19996;-74
2022/05/13 02:16:46;;;;;;;;;;;22.70;55.90;;;;;;5032282;28;19916;-75
2022/05/13 02:19:12;;;;;;;;;;;22.70;55.90;;;;;;5032233;28;20027;-72
2022/05/13 02:21:38;;;;;;;;;;;22.70;56.00;;;;;;5032795;28;20352;-72
2022/05/13 02:24:04;;;;;;;;;;;22.70;56.00;;;;;;5032679;28;19940;-72
2022/05/13 02:26:29;;;;;;;;;;;22.70;56.10;;;;;;5032726;28;19905;-73
2022/05/13 02:28:57;;;;;;;;;;;22.70;56.30;;;;;;5032023;28;20266;-73
2022/05/13 02:31:23;;;;;;;;;;;22.70;56.70;;;;;;5032668;28;20366;-72
2022/05/13 02:33:49;;;;;;;;;;;22.70;56.10;;;;;;5032379;28;19909;-73
2022/05/13 02:36:14;;;;;;;;;;;22.70;55.90;;;;;;5032578;28;19976;-74
2022/05/13 02:38:40;;;;;;;;;;;22.70;55.90;;;;;;5031975;28;19917;-73
2022/05/13 02:41:11;;;;;;;;;;;22.70;56.10;;;;;;5032595;28;20502;-73
2022/05/13 02:43:50;;;;;;;;;;;22.70;55.90;;;;;;5032608;28;19933;-73
2022/05/13 02:46:17;;;;;;;;;;;22.70;55.80;;;;;;5032624;28;20395;-73
2022/05/13 02:48:43;;;;;;;;;;;22.70;55.80;;;;;;5031775;28;20432;-73
2022/05/13 02:51:08;;;;;;;;;;;22.70;55.90;;;;;;5032313;28;19909;-73
2022/05/13 02:53:34;;;;;;;;;;;22.70;55.90;;;;;;5032299;28;19909;-73
2022/05/13 02:56:00;;;;;;;;;;;22.70;55.80;;;;;;5032326;28;19917;-73
2022/05/13 02:58:25;;;;;;;;;;;22.70;56.00;;;;;;5031750;28;19909;-73
2022/05/13 03:00:51;;;;;;;;;;;22.70;55.80;;;;;;5032076;28;19913;-73
2022/05/13 03:03:17;;;;;;;;;;;22.70;55.70;;;;;;5032326;28;19921;-73
2022/05/13 03:05:42;;;;;;;;;;;22.70;55.80;;;;;;5032230;28;19910;-73
2022/05/13 03:08:08;;;;;;;;;;;22.70;55.80;;;;;;5031948;28;19909;-74
2022/05/13 03:10:36;;;;;;;;;;;22.70;55.80;;;;;;5031873;28;19977;-73
2022/05/13 03:13:02;;;;;;;;;;;22.70;55.70;;;;;;5032126;28;19920;-73
2022/05/13 03:15:27;;;;;;;;;;;22.70;55.70;;;;;;5031876;28;19909;-74
2022/05/13 03:17:53;;;;;;;;;;;22.70;55.80;;;;;;5031832;28;19913;-73
2022/05/13 03:20:20;;;;;;;;;;;22.70;55.80;;;;;;5031246;28;19920;-71
2022/05/13 03:22:46;;;;;;;;;;;22.70;55.70;;;;;;5031769;28;20360;-72
2022/05/13 03:25:12;;;;;;;;;;;22.60;55.60;;;;;;5031818;28;19909;-72
2022/05/13 03:27:37;;;;;;;;;;;22.60;55.60;;;;;;5032574;28;19917;-72
2022/05/13 03:30:04;;;;;;;;;;;22.60;55.80;;;;;;5035202;28;20012;-73
2022/05/13 03:32:29;;;;;;;;;;;22.60;55.80;;;;;;5035667;28;19913;-73
2022/05/13 03:34:55;;;;;;;;;;;22.60;56.10;;;;;;5035703;28;19916;-75
2022/05/13 03:37:21;;;;;;;;;;;22.60;55.40;;;;;;5035686;28;19909;-71
2022/05/13 03:39:46;;;;;;;;;;;22.60;55.00;;;;;;5034931;28;19999;-72
2022/05/13 03:42:12;;;;;;;;;;;22.60;55.50;;;;;;5035633;28;20043;-69
2022/05/13 03:44:37;;;;;;;;;;;22.60;55.60;;;;;;5035408;28;20370;-69
2022/05/13 03:47:04;;;;;;;;;;;22.60;55.50;;;;;;5035449;28;19959;-69
2022/05/13 03:49:30;;;;;;;;;;;22.60;55.50;;;;;;5034892;28;20285;-72
2022/05/13 03:51:55;;;;;;;;;;;22.60;55.80;;;;;;5035431;28;19916;-71
2022/05/13 03:54:21;;;;;;;;;;;22.70;55.90;;;;;;5035440;28;19931;-71
2022/05/13 03:56:46;;;;;;;;;;;22.70;56.50;;;;;;5035311;28;19910;-72
2022/05/13 03:59:12;;;;;;;;;;;22.70;55.90;;;;;;5034840;28;19967;-73
2022/05/13 04:01:37;;;;;;;;;;;22.70;55.80;;;;;;5035148;28;20332;-73
2022/05/13 04:04:03;;;;;;;;;;;22.70;55.80;;;;;;5035295;28;19909;-72
2022/05/13 04:09:13;;;;;;;;;;;22.70;55.70;;;;;;5035888;28;19955;-73
2022/05/13 04:11:39;;;;;;;;;;;22.70;55.80;;;;;;5034997;28;19913;-70
2022/05/13 04:16:50;;;;;;;;;;;22.70;55.80;;;;;;5036385;28;19920;-75
2022/05/13 04:19:16;;;;;;;;;;;22.70;55.90;;;;;;5034334;28;20293;-73
2022/05/13 04:21:42;;;;;;;;;;;22.70;55.90;;;;;;5034872;28;20330;-73
2022/05/13 04:24:10;;;;;;;;;;;22.70;55.90;;;;;;5034895;28;20008;-75
2022/05/13 04:26:36;;;;;;;;;;;22.70;55.90;;;;;;5034866;28;19909;-74
2022/05/13 04:29:02;;;;;;;;;;;22.70;56.00;;;;;;5034052;28;20008;-75
2022/05/13 04:31:31;;;;;;;;;;;22.70;55.90;;;;;;5034692;28;19956;-73
2022/05/13 04:33:56;;;;;;;;;;;22.70;55.90;;;;;;5034661;28;19909;-71
2022/05/13 04:36:23;;;;;;;;;;;22.70;55.90;;;;;;5034627;28;19916;-70
2022/05/13 04:38:49;;;;;;;;;;;22.70;55.90;;;;;;5033327;28;19920;-70
2022/05/13 04:43:59;;;;;;;;;;;22.80;55.90;;;;;;5036181;28;19917;-73
2022/05/13 04:46:25;;;;;;;;;;;22.70;55.80;;;;;;5034346;28;19909;-74
2022/05/13 04:48:51;;;;;;;;;;;22.80;56.10;;;;;;5033688;28;19952;-73
2022/05/13 04:51:17;;;;;;;;;;;22.70;55.70;;;;;;5034501;28;19909;-73
2022/05/13 04:53:43;;;;;;;;;;;22.70;55.70;;;;;;5034288;28;19909;-75
2022/05/13 04:56:09;;;;;;;;;;;22.70;55.70;;;;;;5034447;28;20008;-74
2022/05/13 04:58:35;;;;;;;;;;;22.80;55.80;;;;;;5033679;28;20370;-74
2022/05/13 05:01:01;;;;;;;;;;;22.80;55.80;;;;;;5033985;28;19921;-77
2022/05/13 05:03:28;;;;;;;;;;;22.80;55.90;;;;;;5033990;28;19916;-73
2022/05/13 05:05:53;;;;;;;;;;;22.80;55.90;;;;;;5034015;28;19915;-74
2022/05/13 05:08:19;;;;;;;;;;;22.80;55.80;;;;;;5033968;28;20020;-75
2022/05/13 05:10:45;;;;;;;;;;;22.80;55.70;;;;;;5033489;28;19916;-72
2022/05/13 05:13:16;;;;;;;;;;;22.90;55.80;;;;;;5033618;28;19909;-72
2022/05/13 05:15:42;;;;;;;;;;;22.90;55.60;;;;;;5032676;28;19910;-72
2022/05/13 05:18:08;;;;;;;;;;;22.90;55.60;;;;;;5032439;28;19909;-72
2022/05/13 05:20:34;;;;;;;;;;;22.90;55.50;;;;;;5032054;28;19963;-72
2022/05/13 05:22:59;;;;;;;;;;;22.90;55.40;;;;;;5032407;28;19967;-74
2022/05/13 05:25:28;;;;;;;;;;;22.90;55.40;;;;;;5032579;28;19920;-74
2022/05/13 05:27:54;;;;;;;;;;;22.90;55.20;;;;;;5032379;28;19983;-72
2022/05/13 05:30:20;;;;;;;;;;;22.90;55.10;;;;;;5033257;28;20261;-75
2022/05/13 05:32:45;;;;;;;;;;;22.90;55.10;;;;;;5033455;28;20370;-75
2022/05/13 05:35:13;;;;;;;;;;;22.80;55.00;;;;;;5033657;28;19916;-76
2022/05/13 05:37:39;;;;;;;;;;;22.80;55.00;;;;;;5033293;28;19909;-75
2022/05/13 05:40:05;;;;;;;;;;;22.80;55.00;;;;;;5032859;28;20361;-75
2022/05/13 05:42:30;;;;;;;;;;;22.80;54.90;;;;;;5033465;28;20246;-73
2022/05/13 05:44:56;;;;;;;;;;;22.80;54.80;;;;;;5033452;28;19909;-74
2022/05/13 05:47:22;;;;;;;;;;;22.80;54.80;;;;;;5033314;28;19916;-72
2022/05/13 05:49:48;;;;;;;;;;;22.80;54.60;;;;;;5032225;28;19916;-76
2022/05/13 05:52:13;;;;;;;;;;;22.80;54.60;;;;;;5032875;28;19909;-76
2022/05/13 05:57:23;;;;;;;;;;;22.80;54.50;;;;;;5034423;28;19916;-82
2022/05/13 05:59:49;;;;;;;;;;;22.80;54.70;;;;;;5032504;28;19913;-73
2022/05/13 06:02:15;;;;;;;;;;;22.80;54.60;;;;;;5033143;28;19944;-75
2022/05/13 06:04:40;;;;;;;;;;;22.80;54.70;;;;;;5032924;28;20247;-72
2022/05/13 06:07:07;;;;;;;;;;;22.80;55.00;;;;;;5032658;28;20365;-75
2022/05/13 06:09:32;;;;;;;;;;;22.80;54.70;;;;;;5032504;28;19905;-70
2022/05/13 06:11:58;;;;;;;;;;;22.80;54.70;;;;;;5032774;28;19913;-72
2022/05/13 06:14:23;;;;;;;;;;;22.80;54.80;;;;;;5032900;28;20007;-71
2022/05/13 06:16:49;;;;;;;;;;;22.80;54.80;;;;;;5032791;28;19945;-73
2022/05/13 06:19:15;;;;;;;;;;;22.80;54.80;;;;;;5032261;28;20324;-71
2022/05/13 06:21:40;;;;;;;;;;;22.90;54.80;;;;;;5032698;28;19913;-70
2022/05/13 06:24:06;;;;;;;;;;;22.80;54.60;;;;;;5032623;28;19909;-71
2022/05/13 06:26:31;;;;;;;;;;;22.80;54.70;;;;;;5032712;28;20357;-70
2022/05/13 06:28:57;;;;;;;;;;;22.80;54.60;;;;;;5031837;28;19964;-69
2022/05/13 06:31:23;;;;;;;;;;;22.80;54.70;;;;;;5032761;28;20382;-72
2022/05/13 06:33:49;;;;;;;;;;;22.80;54.70;;;;;;5032460;28;19909;-71
2022/05/13 06:36:15;;;;;;;;;;;22.80;54.90;;;;;;5032720;28;19916;-76
2022/05/13 06:38:41;;;;;;;;;;;22.70;54.70;;;;;;5032098;28;19909;-74
2022/05/13 06:41:07;;;;;;;;;;;22.80;54.70;;;;;;5032538;28;19913;-75
2022/05/13 06:43:32;;;;;;;;;;;22.80;54.70;;;;;;5032455;28;19909;-73
2022/05/13 06:45:58;;;;;;;;;;;22.80;54.60;;;;;;5032387;28;19913;-68
2022/05/13 06:48:24;;;;;;;;;;;22.80;55.10;;;;;;5032132;28;19905;-69
2022/05/13 06:50:50;;;;;;;;;;;22.80;54.50;;;;;;5032204;28;20374;-71
2022/05/13 06:53:17;;;;;;;;;;;22.80;54.80;;;;;;5032399;28;19959;-67
2022/05/13 06:55:44;;;;;;;;;;;22.80;54.60;;;;;;5033597;28;20015;-68
2022/05/13 06:58:10;;;;;;;;;;;22.80;54.60;;;;;;5032152;28;19979;-67
2022/05/13 07:00:36;;;;;;;;;;;22.80;54.50;;;;;;5031873;28;19917;-75
2022/05/13 07:03:01;;;;;;;;;;;22.80;54.50;;;;;;5035640;28;19909;-71
2022/05/13 07:05:28;;;;;;;;;;;;;;;;;;5036357;28;19909;-70
2022/05/13 07:07:53;;;;;;;;;;;22.90;53.50;;;;;;5036207;28;19909;-74
2022/05/13 07:10:19;;;;;;;;;;;23.00;53.70;;;;;;5035786;28;19915;-72
2022/05/13 07:12:44;;;;;;;;;;;23.00;53.60;;;;;;5036168;28;19909;-72
2022/05/13 07:15:11;;;;;;;;;;;23.00;53.60;;;;;;5035914;28;19916;-73
2022/05/13 07:17:40;;;;;;;;;;;23.00;53.50;;;;;;5035870;28;20355;-69
2022/05/13 07:20:07;;;;;;;;;;;23.00;53.40;;;;;;5035259;28;20007;-74
2022/05/13 07:22:34;;;;;;;;;;;23.00;53.40;;;;;;5037296;28;19913;-71
2022/05/13 07:24:59;;;;;;;;;;;23.10;53.30;;;;;;5035906;28;20247;-75
2022/05/13 07:27:25;;;;;;;;;;;23.20;53.00;;;;;;5035597;28;19920;-70
2022/05/13 07:29:50;;;;;;;;;;;23.20;52.70;;;;;;5035313;28;19951;-73
2022/05/13 07:32:16;;;;;;;;;;;23.20;52.70;;;;;;5035226;28;19909;-71
2022/05/13 07:34:41;;;;;;;;;;;23.10;52.70;;;;;;5033389;28;19909;-73
2022/05/13 07:37:07;;;;;;;;;;;23.10;52.70;;;;;;5035316;28;19909;-71
2022/05/13 07:42:16;;;;;;;;;;;23.00;52.60;;;;;;5036782;28;20265;-71
2022/05/13 07:44:42;;;;;;;;;;;23.00;52.50;;;;;;5035309;28;19909;-73
2022/05/13 07:47:08;;;;;;;;;;;23.00;52.50;;;;;;5035211;28;19905;-72
2022/05/13 07:49:34;;;;;;;;;;;23.00;52.50;;;;;;5034898;28;20016;-72
2022/05/13 07:52:00;;;;;;;;;;;23.00;52.50;;;;;;5035128;28;20361;-71
2022/05/13 07:54:25;;;;;;;;;;;23.00;52.40;;;;;;5035068;28;19913;-72
2022/05/13 07:56:51;;;;;;;;;;;23.00;52.30;;;;;;5035152;28;19910;-69
2022/05/13 07:59:16;;;;;;;;;;;23.00;52.40;;;;;;5036163;28;19913;-72
2022/05/13 08:01:42;;;;;;;;;;;23.00;52.40;;;;;;5035219;28;19919;-73
2022/05/13 08:04:07;;;;;;;;;;;22.90;52.30;;;;;;5035098;28;20335;-69
2022/05/13 08:06:33;;;;;;;;;;;22.90;52.30;;;;;;5035472;28;19935;-72
2022/05/13 08:08:58;;;;;;;;;;;22.90;52.40;;;;;;5034504;28;20301;-70
2022/05/13 08:11:25;;;;;;;;;;;22.90;52.40;;;;;;5034892;28;20000;-72
2022/05/13 08:13:51;;;;;;;;;;;22.90;52.40;;;;;;5033998;28;19913;-72
2022/05/13 08:16:18;;;;;;;;;;;22.90;52.40;;;;;;5035023;28;20315;-69
2022/05/13 08:18:44;;;;;;;;;;;22.90;52.30;;;;;;5034370;28;19909;-75
2022/05/13 08:21:10;;;;;;;;;;;22.90;52.30;;;;;;5034703;28;19928;-74
2022/05/13 08:23:36;;;;;;;;;;;22.90;52.20;;;;;;5034932;28;20373;-74
2022/05/13 08:26:02;;;;;;;;;;;22.90;52.10;;;;;;5034839;28;20404;-76
2022/05/13 08:28:27;;;;;;;;;;;22.90;52.10;;;;;;5034179;28;20012;-72
2022/05/13 08:30:53;;;;;;;;;;;22.90;52.10;;;;;;5034525;28;19956;-70
2022/05/13 08:33:19;;;;;;;;;;;23.00;52.00;;;;;;5034642;28;19919;-71
2022/05/13 08:35:49;;;;;;;;;;;23.00;51.80;;;;;;5034690;28;19909;-70
2022/05/13 08:38:16;;;;;;;;;;;23.10;51.70;;;;;;5034601;28;19963;-73
2022/05/13 08:40:51;;;;;;;;;;;23.10;51.90;;;;;;5034130;28;19913;-73
2022/05/13 08:43:18;;;;;;;;;;;23.10;51.80;;;;;;5034700;28;19910;-72
2022/05/13 08:45:53;;;;;;;;;;;23.10;51.70;;;;;;5034401;28;19913;-69
2022/05/13 08:48:21;;;;;;;;;;;23.10;51.60;;;;;;5034326;28;19959;-75
2022/05/13 08:50:53;;;;;;;;;;;23.10;51.60;;;;;;5034168;28;19916;-71
2022/05/13 08:53:35;;;;;;;;;;;23.10;51.60;;;;;;5034508;28;19913;-71
2022/05/13 08:56:05;;;;;;;;;;;23.10;51.70;;;;;;5034122;28;19913;-72
2022/05/13 08:58:33;;;;;;;;;;;23.10;51.70;;;;;;5033838;28;19963;-71
2022/05/13 09:00:59;;;;;;;;;;;23.10;51.70;;;;;;5034074;28;19913;-71
2022/05/13 09:03:34;;;;;;;;;;;23.00;51.60;;;;;;5034219;28;19963;-75
2022/05/13 09:06:12;;;;;;;;;;;23.10;51.60;;;;;;5034155;28;19945;-71
2022/05/13 09:08:37;;;;;;;;;;;23.10;51.60;;;;;;5033651;28;19909;-72
2022/05/13 09:11:22;;;;;;;;;;;23.10;51.50;;;;;;5052356;28;19913;-75
2022/05/13 09:14:08;;;;;;;;;;;23.10;51.40;;;;;;5053653;28;20393;-73
2022/05/13 09:16:46;;;;;;;;;;;23.10;51.40;;;;;;5053802;28;19951;-69
2022/05/13 09:19:14;;;;;;;;;;;23.10;51.40;;;;;;5053121;28;19960;-73
2022/05/13 09:21:43;;;;;;;;;;;23.10;51.50;;;;;;5053738;28;20316;-68
2022/05/13 09:24:09;;;;;;;;;;;23.10;51.50;;;;;;5053705;28;19916;-72
2022/05/13 09:26:38;;;;;;;;;;;23.10;51.50;;;;;;5053594;28;19932;-69
2022/05/13 09:29:11;;;;;;;;;;;23.10;51.50;;;;;;5052930;28;20385;-67
2022/05/13 09:31:39;;;;;;;;;;;23.10;51.30;;;;;;5053378;28;20362;-67
2022/05/13 09:34:14;;;;;;;;;;;23.10;51.30;;;;;;5053543;28;19909;-73
2022/05/13 09:36:39;;;;;;;;;;;23.20;51.30;;;;;;5053525;28;20062;-69
2022/05/13 09:39:24;;;;;;;;;;;23.20;51.40;;;;;;5052672;28;20353;-69
2022/05/13 09:41:52;;;;;;;;;;;23.20;52.00;;;;;;5053279;28;20396;-71
2022/05/13 09:44:23;;;;;;;;;;;23.20;52.10;;;;;;5053293;28;20362;-70
2022/05/13 09:46:50;;;;;;;;;;;23.40;51.70;;;;;;5053006;28;20278;-69
2022/05/13 09:49:16;;;;;;;;;;;23.50;51.30;;;;;;5052560;28;19916;-69
2022/05/13 09:51:54;;;;;;;;;;;23.50;51.70;;;;;;5052978;28;19908;-71
2022/05/13 09:54:20;;;;;;;;;;;;;;;;;;5052999;28;20353;-71
2022/05/13 09:56:47;;;;;;;;;;;23.90;62.50;;;;;;5052874;28;19916;-70
2022/05/13 09:59:19;;;;;;;;;;;24.10;49.70;;;;;;5052285;28;19986;-69
2022/05/13 10:01:45;;;;;;;;;;;24.30;49.40;;;;;;5052962;28;20257;-71
2022/05/13 10:04:12;;;;;;;;;;;24.30;49.20;;;;;;5052752;28;19909;-71
2022/05/13 10:06:38;;;;;;;;;;;24.30;49.20;;;;;;5052758;28;19992;-68
2022/05/13 10:14:33;;;;;;;;;;;;;;;;;;5053987;28;20262;-69
2022/05/13 10:16:59;;;;;;;;;;;;;;;;;;5052645;28;19913;-73
2022/05/13 10:19:25;;;;;;;;;;;;;;;;;;5052046;28;19913;-70
2022/05/13 10:21:51;;;;;;;;;;;;;;;;;;5052545;28;19916;-71
2022/05/13 10:24:17;;;;;;;;;;;;;;;;;;5052419;28;19913;-70
2022/05/13 10:26:43;;;;;;;;;;;;;;;;;;5052445;28;19913;-74
2022/05/13 10:29:09;;;;;;;;;;;;;;;;;;5049977;28;19917;-73
2022/05/13 10:31:35;;;;;;;;;;;;;;;;;;5052249;28;19909;-69
2022/05/13 10:34:01;;;;;;;;;;;;;;;;;;5052356;28;20411;-72
2022/05/13 10:36:27;;;;;;;;;;;;;;;;;;5051928;28;19905;-72
2022/05/13 10:38:55;;;;;;;;;;;;;;;;;;5051890;28;19915;-68
2022/05/13 10:41:21;;;;;;;;;;;;;;;;;;5052463;28;20361;-68
2022/05/13 10:43:47;;;;;;;;;;;;;;;;;;5052252;28;20016;-72
2022/05/13 10:46:13;;;;;;;;;;;;;;;;;;5056045;28;19909;-68
2022/05/13 10:48:39;;;;;;;;;;;;;;;;;;5067635;28;20010;-66
2022/05/13 10:51:05;;;;;;;;;;;;;;;;;;5050326;28;20354;-70
2022/05/13 10:53:31;;;;;;;;;;;;;;;;;;5051286;28;19923;-67
2022/05/13 10:55:57;;;;;;;;;;;;;;;;;;5051201;28;20280;-69
2022/05/13 10:58:23;;;;;;;;;;;;;;;;;;5051021;28;19909;-67
2022/05/13 11:00:49;;;;;;;;;;;;;;;;;;5052044;28;19920;-69
2022/05/13 11:03:15;;;;;;;;;;;;;;;;;;5052132;28;19927;-68
2022/05/13 11:05:41;;;;;;;;;;;;;;;;;;5051043;28;19913;-69
2022/05/13 11:08:07;;;;;;;;;;;;;;;;;;5050896;28;19909;-68
2022/05/13 11:10:33;;;;;;;;;;;;;;;;;;5050521;28;20262;-67
2022/05/13 11:12:59;;;;;;;;;;;;;;;;;;5052163;28;19912;-69
2022/05/13 11:15:25;;;;;;;;;;;;;;;;;;5050655;28;20266;-67
2022/05/13 11:17:50;;;;;;;;;;;;;;;;;;5050912;28;20361;-69
2022/05/13 11:20:16;;;;;;;;;;;;;;;;;;5050617;28;20364;-68
2022/05/13 11:22:44;;;;;;;;;;;;;;;;;;5050729;28;19913;-68
2022/05/13 11:27:54;;;;;;;;;;;;;;;;;;5051681;28;19924;-67
2022/05/13 11:30:20;;;;;;;;;;;;;;;;;;5050383;28;19913;-67
2022/05/13 11:32:46;;;;;;;;;;;;;;;;;;5050571;28;19939;-67
2022/05/13 11:35:12;;;;;;;;;;;;;;;;;;5050509;28;19915;-67
2022/05/13 11:37:38;;;;;;;;;;;;;;;;;;5050569;28;19909;-68
2022/05/13 11:40:04;;;;;;;;;;;;;;;;;;5049815;28;19919;-68
2022/05/13 11:42:30;;;;;;;;;;;;;;;;;;5050759;28;19909;-69
2022/05/13 11:44:56;;;;;;;;;;;;;;;;;;5050776;28;20350;-69
2022/05/13 11:47:22;;;;;;;;;;;;;;;;;;5050620;28;20380;-66
2022/05/13 11:49:48;;;;;;;;;;;;;;;;;;5052909;28;20361;-64
2022/05/13 11:52:14;;;;;;;;;;;;;;;;;;5053978;28;19919;-67
2022/05/13 11:54:40;;;;;;;;;;;;;;;;;;5053129;28;19916;-63
2022/05/13 11:57:06;;;;;;;;;;;;;;;;;;5054124;28;19917;-66
2022/05/13 11:59:31;;;;;;;;;;;;;;;;;;5053679;28;19983;-69
2022/05/13 12:01:57;;;;;;;;;;;;;;;;;;5054081;28;20365;-67
2022/05/13 12:04:23;;;;;;;;;;;;;;;;;;5053775;28;19948;-68
2022/05/13 12:06:49;;;;;;;;;;;;;;;;;;5054038;28;19955;-68
2022/05/13 12:09:15;;;;;;;;;;;;;;;;;;5053665;28;19919;-66
2022/05/13 12:11:42;;;;;;;;;;;;;;;;;;5053855;28;19924;-69
2022/05/13 12:14:08;;;;;;;;;;;;;;;;;;5053932;28;19905;-68
2022/05/13 12:16:34;;;;;;;;;;;;;;;;;;5053562;28;19935;-68
2022/05/13 12:19:00;;;;;;;;;;;;;;;;;;5053375;28;19908;-68
2022/05/13 12:21:26;;;;;;;;;;;;;;;;;;5053788;28;19972;-67
2022/05/13 12:23:52;;;;;;;;;;;;;;;;;;5053689;28;19916;-69
2022/05/13 12:26:18;;;;;;;;;;;;;;;;;;5053678;28;19908;-69
2022/05/13 12:28:44;;;;;;;;;;;;;;;;;;5052626;28;20369;-70
2022/05/13 12:31:10;;;;;;;;;;;;;;;;;;5052031;28;19909;-69
2022/05/13 12:33:36;;;;;;;;;;;;;;;;;;5053519;28;20412;-70
2022/05/13 12:38:46;;;;;;;;;;;;;;;;;;5053942;28;19992;-70
2022/05/13 12:41:12;;;;;;;;;;;;;;;;;;5052621;28;20007;-74
2022/05/13 12:43:38;;;;;;;;;;;;;;;;;;5053006;28;19996;-73
2022/05/13 12:46:04;;;;;;;;;;;;;;;;;;5053443;28;20313;-74
2022/05/13 12:48:30;;;;;;;;;;;;;;;;;;5052992;28;19915;-75
2022/05/13 12:50:56;;;;;;;;;;;;;;;;;;5053510;28;19909;-76
2022/05/13 12:53:22;;;;;;;;;;;;;;;;;;5054096;28;20396;-77
2022/05/13 12:55:48;;;;;;;;;;;;;;;;;;5069145;28;19975;-73
2022/05/13 12:58:14;;;;;;;;;;;;;;;;;;5073202;28;19920;-76
2022/05/13 13:00:39;;;;;;;;;;;;;;;;;;5072472;28;19923;-71
2022/05/13 13:03:05;;;;;;;;;;;;;;;;;;5073073;28;20341;-75
2022/05/13 13:05:32;;;;;;;;;;;;;;;;;;5072577;28;19912;-74
2022/05/13 13:07:58;;;;;;;;;;;;;;;;;;5072708;28;19928;-73
2022/05/13 13:10:24;;;;;;;;;;;;;;;;;;5072485;28;19908;-74
2022/05/13 13:12:50;;;;;;;;;;;;;;;;;;5073017;28;19958;-76
2022/05/13 13:15:16;;;;;;;;;;;;;;;;;;5072874;28;20353;-74
2022/05/13 13:17:43;;;;;;;;;;;;;;;;;;5072183;28;20026;-71
2022/05/13 13:20:09;;;;;;;;;;;;;;;;;;5070936;28;20002;-73
2022/05/13 13:22:36;;;;;;;;;;;;;;;;;;5058808;28;20030;-81
2022/05/13 13:25:02;;;;;;;;;;;;;;;;;;5033064;28;20624;-75
2022/05/13 13:27:28;;;;;;;;;;;;;;;;;;5032818;28;19905;-78
2022/05/13 13:29:54;;;;;;;;;;;;;;;;;;5033189;28;19920;-76
2022/05/13 13:32:20;;;;;;;;;;;;;;;;;;5033094;28;19914;-81
2022/05/13 13:34:46;;;;;;;;;;;;;;;;;;5033236;28;19905;-80
2022/05/13 13:37:12;;;;;;;;;;;;;;;;;;5032705;28;19913;-74
2022/05/13 13:39:38;;;;;;;;;;;;;;;;;;5031996;28;19955;-72
2022/05/13 13:42:04;;;;;;;;;;;;;;;;;;5032239;28;19909;-75
2022/05/13 13:44:30;;;;;;;;;;;;;;;;;;5032520;28;19935;-74
2022/05/13 13:46:56;;;;;;;;;;;;;;;;;;5032472;28;19967;-74
2022/05/13 13:49:22;;;;;;;;;;;;;;;;;;5032079;28;19955;-77
2022/05/13 13:51:48;;;;;;;;;;;;;;;;;;5032402;28;20315;-76
2022/05/13 13:54:14;;;;;;;;;;;;;;;;;;5033496;28;19915;-78
2022/05/13 13:56:42;;;;;;;;;;;;;;;;;;5032203;28;19913;-77
2022/05/13 13:59:07;;;;;;;;;;;;;;;;;;5031667;28;19913;-73
2022/05/13 14:01:33;;;;;;;;;;;;;;;;;;5032083;28;19999;-72
2022/05/13 14:03:59;;;;;;;;;;;;;;;;;;5032204;28;19935;-72
2022/05/13 14:06:25;;;;;;;;;;;;;;;;;;5031655;28;19913;-74
2022/05/13 14:08:51;;;;;;;;;;;;;;;;;;5032386;28;20389;-79
2022/05/13 14:11:17;;;;;;;;;;;;;;;;;;5046819;28;19909;-78
2022/05/13 14:13:43;;;;;;;;;;;;;;;;;;5052287;28;19913;-79
2022/05/13 14:16:09;;;;;;;;;;;;;;;;;;5053466;28;19908;-77
2022/05/13 14:18:35;;;;;;;;;;;;;;;;;;5052393;28;19913;-75
2022/05/13 14:21:01;;;;;;;;;;;;;;;;;;5052674;28;19923;-75
2022/05/13 14:23:27;;;;;;;;;;;;;;;;;;5051620;28;19909;-78
2022/05/13 14:25:56;;;;;;;;;;;;;;;;;;5051696;28;20346;-77
2022/05/13 14:28:22;;;;;;;;;;;;;;;;;;5051724;28;20047;-79
2022/05/13 14:30:50;;;;;;;;;;;;;;;;;;5050501;28;21387;-81
2022/05/13 14:33:16;;;;;;;;;;;;;;;;;;5051468;28;19923;-70
2022/05/13 14:35:42;;;;;;;;;;;;;;;;;;5051407;28;20330;-71
2022/05/13 14:38:08;;;;;;;;;;;;;;;;;;5051038;28;19959;-71
2022/05/13 14:40:34;;;;;;;;;;;;;;;;;;5050860;28;19912;-70
2022/05/13 14:43:00;;;;;;;;;;;;;;;;;;5050861;28;20247;-70
2022/05/13 14:45:26;;;;;;;;;;;;;;;;;;5051097;28;20343;-71
2022/05/13 14:47:52;;;;;;;;;;;;;;;;;;5051094;28;19915;-72
2022/05/13 14:50:19;;;;;;;;;;;;;;;;;;5050719;28;19917;-72
2022/05/13 14:52:45;;;;;;;;;;;;;;;;;;5050939;28;19909;-69
2022/05/13 14:55:11;;;;;;;;;;;;;;;;;;5050791;28;19924;-70
2022/05/13 14:57:38;;;;;;;;;;;;;;;;;;5050742;28;19909;-70
2022/05/13 15:00:04;;;;;;;;;;;;;;;;;;5050184;28;19920;-71
2022/05/13 15:02:31;;;;;;;;;;;;;;;;;;5050981;28;19909;-70
2022/05/13 15:04:57;;;;;;;;;;;;;;;;;;5051209;28;19945;-71
2022/05/13 15:07:23;;;;;;;;;;;;;;;;;;5050703;28;19939;-72
2022/05/13 15:09:49;;;;;;;;;;;;;;;;;;5050624;28;20469;-71
2022/05/13 15:12:16;;;;;;;;;;;;;;;;;;5051104;28;19952;-71
2022/05/13 15:14:42;;;;;;;;;;;;;;;;;;5051038;28;20257;-71
2022/05/13 15:17:08;;;;;;;;;;;;;;;;;;5050908;28;20467;-71
2022/05/13 15:19:36;;;;;;;;;;;;;;;;;;5050116;28;19913;-71
2022/05/13 15:22:01;;;;;;;;;;;;;;;;;;5050902;28;19920;-71
2022/05/13 15:24:27;;;;;;;;;;;;;;;;;;5054771;28;19913;-70